Time;durP1;ratioP1;P1;durP2;ratioP2;P2;SDS_P1;SDS_P2;PMS_P1;PMS_P2;Temp;Humidity;BMP_temperature;BMP_pressure;BME280_temperature;BME280_humidity;BME280_pressure;Samples;Min_cycle;Max_cycle;Signal;HPM_P1;HPM_P2
2022/05/21 00:00:24;;;;;;;;;0.67;0.00;;;;;22.41;58.01;101896.41;5070060;28;9278;-73
2022/05/21 00:02:49;;;;;;;;;0.67;0.67;;;;;22.43;57.68;101899.94;5070514;28;8766;-73
2022/05/21 00:05:16;;;;;;;;;0.00;0.00;;;;;22.42;57.55;101891.97;5068924;28;8818;-74
2022/05/21 00:07:42;;;;;;;;;0.00;0.00;;;;;22.42;57.87;101895.50;5069966;28;8755;-74
2022/05/21 00:10:08;;;;;;;;;0.00;0.00;;;;;22.41;57.77;101893.75;5070126;28;9505;-74
2022/05/21 00:12:34;;;;;;;;;0.00;0.00;;;;;22.41;57.78;101896.41;5070378;28;8802;-73
2022/05/21 00:14:59;;;;;;;;;0.00;0.00;;;;;22.41;57.56;101892.88;5067566;28;8818;-72
2022/05/21 00:17:25;;;;;;;;;0.00;0.00;;;;;22.40;57.53;101899.97;5070455;28;8770;-72
2022/05/21 00:19:50;;;;;;;;;0.00;0.00;;;;;22.39;57.65;101900.84;5069508;28;9542;-73
2022/05/21 00:22:15;;;;;;;;;0.00;0.00;;;;;22.39;57.44;101898.19;5070267;28;8971;-73
2022/05/21 00:24:41;;;;;;;;;0.00;0.00;;;;;22.39;57.53;101903.53;5068233;28;8810;-72
2022/05/21 00:27:07;;;;;;;;;0.33;0.00;;;;;22.40;57.58;101907.94;5069113;28;8802;-73
2022/05/21 00:29:32;;;;;;;;;0.00;0.00;;;;;22.39;57.45;101899.97;5070171;28;8777;-73
2022/05/21 00:31:58;;;;;;;;;0.00;0.00;;;;;22.38;57.60;101901.75;5070160;28;8778;-73
2022/05/21 00:34:24;;;;;;;;;0.00;0.00;;;;;22.40;57.53;101915.94;5068062;28;9581;-73
2022/05/21 00:36:49;;;;;;;;;0.00;0.00;;;;;22.38;57.37;101914.19;5069595;28;9537;-73
2022/05/21 00:39:15;;;;;;;;;0.00;0.00;;;;;22.38;57.53;101911.53;5070262;28;9268;-73
2022/05/21 00:41:40;;;;;;;;;0.00;0.00;;;;;22.37;57.33;101905.31;5069490;28;9117;-74
2022/05/21 00:44:07;;;;;;;;;0.00;0.00;;;;;22.36;57.47;101903.56;5068138;28;8899;-73
2022/05/21 00:46:43;;;;;;;;;0.00;0.00;;;;;22.37;57.42;101904.44;5070050;28;8794;-73
2022/05/21 00:49:10;;;;;;;;;0.00;0.00;;;;;22.38;57.40;101906.22;5069402;28;9185;-73
2022/05/21 00:51:48;;;;;;;;;0.00;0.00;;;;;22.36;57.48;101902.66;5069713;28;9120;-74
2022/05/21 00:54:15;;;;;;;;;1.00;1.00;;;;;22.36;57.17;101908.88;5068429;28;9233;-73
2022/05/21 00:56:52;;;;;;;;;0.00;0.00;;;;;22.35;57.29;101903.56;5073045;28;9215;-73
2022/05/21 01:02:05;;;;;;;;;0.00;0.00;;;;;22.34;57.12;101909.81;5073083;28;9171;-73
2022/05/21 01:04:33;;;;;;;;;0.00;0.00;;;;;22.34;57.38;101905.38;5072511;28;9190;-73
2022/05/21 01:07:00;;;;;;;;;0.00;0.00;;;;;22.34;57.47;101913.34;5072846;28;9211;-73
2022/05/21 01:09:26;;;;;;;;;0.00;0.00;;;;;22.34;57.42;101913.34;5074390;28;9159;-73
2022/05/21 01:11:51;;;;;;;;;0.00;0.00;;;;;22.35;57.20;101911.53;5093981;28;9272;-73
2022/05/21 01:14:20;;;;;;;;;0.00;0.00;;;;;22.33;57.56;101914.22;5079995;28;8852;-73
2022/05/21 01:16:46;;;;;;;;;0.00;0.00;;;;;22.32;57.02;101917.78;5072674;28;8926;-73
2022/05/21 01:19:12;;;;;;;;;0.33;0.00;;;;;22.31;57.09;101921.34;5073617;28;9169;-72
2022/05/21 01:21:39;;;;;;;;;1.00;0.00;;;;;22.31;57.27;101916.00;5073481;28;9275;-72
2022/05/21 01:24:09;;;;;;;;;1.00;0.00;;;;;22.29;57.24;101912.50;5070948;28;11008;-72
2022/05/21 01:26:35;;;;;;;;;0.67;0.67;;;;;22.29;57.18;101917.81;5073371;28;9208;-72
2022/05/21 01:29:04;;;;;;;;;0.67;0.67;;;;;22.31;56.90;101915.16;5072970;28;9171;-72
2022/05/21 01:31:32;;;;;;;;;1.33;0.00;;;;;22.29;57.22;101907.19;5072636;28;9117;-72
2022/05/21 01:33:59;;;;;;;;;1.00;0.00;;;;;22.29;56.69;101907.19;5071688;28;9107;-73
2022/05/21 01:36:24;;;;;;;;;0.00;0.00;;;;;22.28;56.79;101905.41;5073040;28;9224;-73
2022/05/21 01:38:50;;;;;;;;;0.00;0.00;;;;;22.29;56.86;101911.63;5072527;28;9073;-74
2022/05/21 01:41:15;;;;;;;;;1.00;0.00;;;;;22.28;56.85;101909.84;5073240;28;11408;-73
2022/05/21 01:46:25;;;;;;;;;1.00;1.00;;;;;22.29;56.58;101906.28;5072308;28;8822;-73
2022/05/21 01:48:50;;;;;;;;;0.00;0.00;;;;;22.28;57.07;101905.41;5073126;28;9109;-73
2022/05/21 01:51:16;;;;;;;;;0.00;0.00;;;;;22.27;56.94;101906.28;5072595;28;8774;-73
2022/05/21 01:53:43;;;;;;;;;0.00;0.00;;;;;22.28;57.15;101912.50;5071641;28;8852;-73
2022/05/21 01:56:10;;;;;;;;;1.00;1.00;;;;;22.27;56.81;101916.09;5073209;28;8825;-72
2022/05/21 01:58:35;;;;;;;;;0.67;0.00;;;;;22.27;56.94;101916.94;5072130;28;9240;-73
2022/05/21 02:01:02;;;;;;;;;1.00;1.00;;;;;22.28;56.34;101908.06;5072080;28;9215;-72
2022/05/21 02:03:27;;;;;;;;;1.00;0.00;;;;;22.28;56.63;101923.16;5070503;28;8840;-72
2022/05/21 02:05:53;;;;;;;;;1.00;1.00;;;;;22.26;56.53;101919.63;5071433;28;9302;-72
2022/05/21 02:08:19;;;;;;;;;0.00;0.00;;;;;22.26;56.40;101912.53;5072846;28;8896;-72
2022/05/21 02:10:45;;;;;;;;;0.00;0.00;;;;;22.27;56.70;101927.56;5072313;28;8797;-72
2022/05/21 02:13:16;;;;;;;;;0.00;0.00;;;;;22.26;56.44;101923.19;5069846;28;8820;-72
2022/05/21 02:15:42;;;;;;;;;0.67;0.67;;;;;22.26;56.53;101916.97;5072087;28;9210;-72
2022/05/21 02:18:07;;;;;;;;;0.00;0.00;;;;;22.25;56.43;101916.09;5072271;28;10099;-72
2022/05/21 02:20:32;;;;;;;;;0.00;0.00;;;;;22.26;56.61;101923.19;5071869;28;8774;-73
2022/05/21 02:22:57;;;;;;;;;0.00;0.00;;;;;22.26;56.73;101920.50;5070809;28;8822;-73
2022/05/21 02:25:23;;;;;;;;;1.67;0.00;;;;;22.25;56.35;101918.75;5071708;28;8852;-73
2022/05/21 02:27:49;;;;;;;;;0.33;0.00;;;;;22.26;56.35;101924.94;5071571;28;8855;-73
2022/05/21 02:30:14;;;;;;;;;1.00;0.00;;;;;22.25;56.77;101925.84;5072243;28;9189;-73
2022/05/21 02:32:39;;;;;;;;;0.00;0.00;;;;;22.23;56.23;101931.19;5072444;28;8746;-72
2022/05/21 02:35:08;;;;;;;;;0.00;0.00;;;;;22.23;56.50;101922.31;5069363;28;8806;-73
2022/05/21 02:40:18;;;;;;;;;0.00;0.00;;;;;22.24;56.15;101934.72;5072053;28;9150;-72
2022/05/21 02:42:43;;;;;;;;;0.00;0.00;;;;;22.22;56.25;101926.75;5070993;28;9995;-73
2022/05/21 02:45:11;;;;;;;;;0.00;0.00;;;;;22.20;56.53;101928.53;5070432;28;8782;-72
2022/05/21 02:47:37;;;;;;;;;0.00;0.00;;;;;22.20;56.46;101928.53;5070925;28;8798;-73
2022/05/21 02:50:03;;;;;;;;;0.00;0.00;;;;;22.20;56.20;101923.22;5071513;28;9166;-72
2022/05/21 02:52:28;;;;;;;;;0.67;0.67;;;;;22.20;56.44;101925.88;5071813;28;9541;-72
2022/05/21 02:54:53;;;;;;;;;1.00;1.00;;;;;22.20;56.16;101927.66;5069135;28;9242;-73
2022/05/21 02:57:18;;;;;;;;;0.33;0.33;;;;;22.20;56.24;101928.53;5071471;28;8813;-73
2022/05/21 02:59:44;;;;;;;;;0.00;0.00;;;;;22.18;56.07;101925.03;5071727;28;9602;-73
2022/05/21 03:02:09;;;;;;;;;0.00;0.00;;;;;22.17;56.09;101924.13;5071103;28;8851;-75
2022/05/21 03:04:35;;;;;;;;;1.00;0.00;;;;;22.16;55.91;101921.47;5070354;28;8822;-73
2022/05/21 03:07:00;;;;;;;;;0.00;0.00;;;;;22.19;55.90;101936.56;5071192;28;8782;-72
2022/05/21 03:12:11;;;;;;;;;1.67;0.00;;;;;22.19;56.03;101933.88;5092075;28;8870;-72
2022/05/21 03:14:37;;;;;;;;;0.00;0.00;;;;;22.20;56.03;101935.63;5075579;28;9536;-73
2022/05/21 03:17:03;;;;;;;;;0.67;0.00;;;;;22.17;55.98;101923.25;5070034;28;8825;-73
2022/05/21 03:19:31;;;;;;;;;1.00;1.00;;;;;22.20;56.15;101932.97;5071370;28;9255;-73
2022/05/21 03:21:57;;;;;;;;;2.75;1.75;;;;;22.19;55.84;101933.88;5070932;28;9363;-73
2022/05/21 03:24:23;;;;;;;;;0.00;0.00;;;;;22.19;55.92;101932.13;5068991;28;9425;-73
2022/05/21 03:26:48;;;;;;;;;0.00;0.00;;;;;22.19;56.03;101933.88;5070895;28;9107;-73
2022/05/21 03:29:13;;;;;;;;;0.00;0.00;;;;;22.17;56.25;101933.88;5071144;28;8805;-73
2022/05/21 03:31:41;;;;;;;;;0.67;0.67;;;;;22.17;55.68;101939.22;5070418;28;8933;-73
2022/05/21 03:34:06;;;;;;;;;0.00;0.00;;;;;22.16;55.78;101938.31;5069034;28;8789;-73
2022/05/21 03:36:32;;;;;;;;;0.00;0.00;;;;;22.16;55.92;101934.78;5070344;28;9140;-73
2022/05/21 03:38:58;;;;;;;;;0.67;0.67;;;;;22.16;55.98;101945.41;5070086;28;8839;-73
2022/05/21 03:41:25;;;;;;;;;1.00;1.00;;;;;22.15;56.03;101947.22;5071127;28;8743;-73
2022/05/21 03:43:52;;;;;;;;;0.00;0.00;;;;;22.14;55.82;101949.88;5068260;28;11425;-73
2022/05/21 03:46:17;;;;;;;;;1.33;1.00;;;;;22.15;55.95;101947.22;5070426;28;9127;-73
2022/05/21 03:48:42;;;;;;;;;0.00;0.00;;;;;22.15;55.71;101949.00;5070791;28;9258;-73
2022/05/21 03:51:08;;;;;;;;;1.00;1.00;;;;;22.13;55.65;101946.34;5069837;28;8900;-72
2022/05/21 03:53:33;;;;;;;;;0.33;0.33;;;;;22.14;55.59;101952.53;5068950;28;8826;-73
2022/05/21 03:55:58;;;;;;;;;0.33;0.33;;;;;22.11;55.93;101942.81;5070334;28;8806;-73
2022/05/21 03:58:24;;;;;;;;;0.00;0.00;;;;;22.14;55.80;101953.44;5069997;28;8790;-72
2022/05/21 04:00:50;;;;;;;;;0.00;0.00;;;;;22.14;55.76;101949.88;5070471;28;8785;-72
2022/05/21 04:03:15;;;;;;;;;1.00;1.00;;;;;22.14;55.66;101944.56;5069048;28;8953;-73
2022/05/21 04:05:41;;;;;;;;;0.00;0.00;;;;;22.14;55.62;101949.88;5069942;28;8770;-73
2022/05/21 04:08:06;;;;;;;;;0.00;0.00;;;;;22.15;55.63;101957.88;5070032;28;8777;-73
2022/05/21 04:10:32;;;;;;;;;0.33;0.33;;;;;22.12;55.66;101951.66;5096272;28;8780;-73
2022/05/21 04:12:57;;;;;;;;;0.67;0.67;;;;;22.13;55.47;101961.41;5087225;28;9544;-73
2022/05/21 04:15:22;;;;;;;;;0.00;0.00;;;;;22.14;55.36;101953.44;5070014;28;8786;-73
2022/05/21 04:17:47;;;;;;;;;0.33;0.00;;;;;22.14;55.51;101965.84;5069745;28;8817;-73
2022/05/21 04:20:15;;;;;;;;;2.00;1.00;;;;;22.12;55.46;101960.53;5069862;28;8797;-73
2022/05/21 04:22:42;;;;;;;;;0.00;0.00;;;;;22.14;55.40;101963.19;5070143;28;8774;-72
2022/05/21 04:25:08;;;;;;;;;1.00;0.00;;;;;22.11;55.38;101957.88;5068214;28;10137;-72
2022/05/21 04:27:35;;;;;;;;;1.00;1.00;;;;;22.09;55.53;101960.56;5069041;28;9225;-73
2022/05/21 04:30:03;;;;;;;;;0.33;0.00;;;;;22.10;55.52;101967.66;5069344;28;9235;-73
2022/05/21 04:32:28;;;;;;;;;0.00;0.00;;;;;22.11;55.42;101966.75;5070054;28;9308;-73
2022/05/21 04:34:57;;;;;;;;;1.00;0.00;;;;;22.11;55.29;101968.53;5067535;28;9113;-73
2022/05/21 04:37:22;;;;;;;;;2.00;1.00;;;;;22.11;55.35;101974.75;5070677;28;8798;-74
2022/05/21 04:39:47;;;;;;;;;0.00;0.00;;;;;22.12;55.57;101978.25;5070673;28;9951;-74
2022/05/21 04:42:12;;;;;;;;;0.00;0.00;;;;;22.10;55.40;101982.72;5070149;28;8846;-73
2022/05/21 04:44:38;;;;;;;;;1.00;0.00;;;;;22.08;55.62;101979.19;5069069;28;8786;-72
2022/05/21 04:47:04;;;;;;;;;0.67;0.00;;;;;22.09;55.24;101975.63;5068268;28;8837;-73
2022/05/21 04:49:30;;;;;;;;;0.00;0.00;;;;;22.14;55.43;101981.81;5070620;28;9525;-73
2022/05/21 04:51:55;;;;;;;;;0.00;0.00;;;;;22.10;55.19;101983.59;5069468;28;8978;-73
2022/05/21 04:54:20;;;;;;;;;0.00;0.00;;;;;22.09;55.52;101987.16;5067727;28;8794;-73
2022/05/21 04:56:46;;;;;;;;;0.33;0.33;;;;;22.10;55.25;101996.91;5069303;28;8810;-72
2022/05/21 04:59:12;;;;;;;;;0.00;0.00;;;;;22.09;55.41;101988.91;5069909;28;8794;-73
2022/05/21 05:01:39;;;;;;;;;0.67;0.00;;;;;22.10;55.28;102001.34;5069226;28;8758;-72
2022/05/21 05:04:06;;;;;;;;;0.67;0.00;;;;;22.09;55.23;101992.47;5067973;28;9270;-73
2022/05/21 05:06:32;;;;;;;;;0.33;0.33;;;;;22.10;55.27;102001.34;5069525;28;9126;-72
2022/05/21 05:08:57;;;;;;;;;0.00;0.00;;;;;22.09;55.48;101999.56;5068615;28;9384;-73
2022/05/21 05:11:23;;;;;;;;;0.67;0.00;;;;;22.07;55.15;102004.91;5069643;28;8818;-73
2022/05/21 05:13:49;;;;;;;;;0.00;0.00;;;;;22.07;55.15;102004.91;5067564;28;8853;-74
2022/05/21 05:16:14;;;;;;;;;1.33;0.00;;;;;22.09;55.13;102011.09;5068492;28;8822;-74
2022/05/21 05:18:40;;;;;;;;;0.00;0.00;;;;;22.08;55.14;102004.00;5069668;28;8856;-73
2022/05/21 05:21:05;;;;;;;;;2.00;0.00;;;;;22.09;55.08;102010.19;5069448;28;8785;-73
2022/05/21 05:23:30;;;;;;;;;0.00;0.00;;;;;22.09;55.11;102020.84;5067443;28;8838;-72
2022/05/21 05:25:59;;;;;;;;;0.67;0.00;;;;;22.10;55.10;102027.94;5069096;28;8798;-73
2022/05/21 05:28:24;;;;;;;;;0.00;0.00;;;;;22.08;55.27;102022.63;5069566;28;8790;-72
2022/05/21 05:30:50;;;;;;;;;0.00;0.00;;;;;22.08;55.07;102024.41;5068648;28;9255;-73
2022/05/21 05:33:16;;;;;;;;;1.00;1.00;;;;;22.09;54.92;102024.38;5067933;28;8821;-72
2022/05/21 05:35:42;;;;;;;;;0.00;0.00;;;;;22.07;55.21;102025.31;5069081;28;8956;-73
2022/05/21 05:38:09;;;;;;;;;0.00;0.00;;;;;22.09;54.94;102026.16;5068205;28;9251;-73
2022/05/21 05:40:35;;;;;;;;;0.00;0.00;;;;;22.08;54.91;102027.09;5069676;28;8977;-73
2022/05/21 05:43:02;;;;;;;;;0.00;0.00;;;;;22.06;54.99;102024.41;5071162;28;9374;-73
2022/05/21 05:45:28;;;;;;;;;0.00;0.00;;;;;22.07;55.05;102027.97;5072421;28;8762;-73
2022/05/21 05:47:53;;;;;;;;;0.00;0.00;;;;;22.05;55.16;102030.63;5072251;28;9899;-73
2022/05/21 05:50:19;;;;;;;;;0.00;0.00;;;;;22.06;55.19;102040.38;5072538;28;8782;-73
2022/05/21 05:52:45;;;;;;;;;0.00;0.00;;;;;22.06;55.00;102031.50;5072725;28;8862;-72
2022/05/21 05:55:10;;;;;;;;;0.00;0.00;;;;;22.06;55.18;102032.41;5071407;28;8949;-72
2022/05/21 05:57:35;;;;;;;;;0.00;0.00;;;;;22.07;54.98;102042.16;5071824;28;8828;-72
2022/05/21 06:00:01;;;;;;;;;0.00;0.00;;;;;22.10;54.75;102043.91;5072762;28;8785;-73
2022/05/21 06:05:17;;;;;;;;;0.00;0.00;;;;;22.05;54.92;102038.59;5070559;28;8762;-73
2022/05/21 06:07:52;;;;;;;;;0.00;0.00;;;;;22.05;54.84;102029.72;5072283;28;9287;-72
2022/05/21 06:10:20;;;;;;;;;0.00;0.00;;;;;22.07;54.56;102036.84;5072761;28;9030;-72
2022/05/21 06:12:47;;;;;;;;;0.00;0.00;;;;;22.07;54.97;102039.50;5071137;28;9296;-72
2022/05/21 06:15:15;;;;;;;;;0.67;0.00;;;;;22.05;54.76;102043.03;5070580;28;9201;-73
2022/05/21 06:17:42;;;;;;;;;0.00;0.00;;;;;22.06;54.79;102039.50;5072431;28;9165;-73
2022/05/21 06:20:11;;;;;;;;;0.00;0.00;;;;;22.07;54.97;102046.59;5071563;28;9283;-73
2022/05/21 06:22:42;;;;;;;;;0.67;0.00;;;;;22.06;54.89;102051.00;5072627;28;9071;-73
2022/05/21 06:25:09;;;;;;;;;1.00;0.00;;;;;22.08;54.84;102053.69;5070287;28;9035;-73
2022/05/21 06:27:34;;;;;;;;;0.00;0.00;;;;;22.08;54.81;102064.31;5071172;28;9152;-74
2022/05/21 06:30:00;;;;;;;;;0.00;0.00;;;;;22.07;54.28;102068.75;5072030;28;8929;-73
2022/05/21 06:32:25;;;;;;;;;1.33;1.00;;;;;22.09;54.43;102071.38;5072109;28;9005;-72
2022/05/21 06:34:50;;;;;;;;;1.00;0.67;;;;;22.07;54.57;102071.41;5069467;28;8802;-72
2022/05/21 06:37:16;;;;;;;;;0.33;0.33;;;;;22.08;54.23;102077.63;5071919;28;8848;-73
2022/05/21 06:39:44;;;;;;;;;0.00;0.00;;;;;22.09;54.56;102074.03;5071254;28;8789;-72
2022/05/21 06:42:11;;;;;;;;;0.33;0.00;;;;;22.11;54.36;102080.25;5072233;28;8782;-72
2022/05/21 06:44:37;;;;;;;;;0.00;0.00;;;;;22.12;54.50;102089.97;5069920;28;9425;-72
2022/05/21 06:47:03;;;;;;;;;1.00;1.00;;;;;22.10;54.28;102086.47;5070501;28;9381;-72
2022/05/21 06:49:28;;;;;;;;;0.33;0.00;;;;;22.11;54.40;102091.78;5072052;28;8943;-72
2022/05/21 06:51:55;;;;;;;;;0.00;0.00;;;;;22.10;54.59;102100.66;5071227;28;8841;-74
2022/05/21 06:54:21;;;;;;;;;1.00;0.00;;;;;22.13;54.19;102097.97;5068781;28;8883;-74
2022/05/21 06:56:47;;;;;;;;;0.33;0.33;;;;;22.13;54.44;102099.72;5071054;28;9395;-73
2022/05/21 06:59:13;;;;;;;;;0.67;0.67;;;;;22.11;54.15;102101.53;5071994;28;9334;-73
2022/05/21 07:01:39;;;;;;;;;0.00;0.00;;;;;22.15;54.38;102097.97;5070997;28;8835;-73
2022/05/21 07:04:04;;;;;;;;;1.00;1.00;;;;;22.15;54.21;102103.28;5069870;28;8838;-73
2022/05/21 07:09:13;;;;;;;;;0.67;0.00;;;;;22.17;54.12;102114.78;5070753;28;8758;-73
2022/05/21 07:11:39;;;;;;;;;0.00;0.00;;;;;22.17;54.38;102112.13;5071131;28;9208;-73
2022/05/21 07:14:05;;;;;;;;;0.00;0.00;;;;;22.17;54.17;102106.81;5069525;28;8838;-73
2022/05/21 07:16:31;;;;;;;;;3.00;1.00;;;;;22.16;54.36;102107.69;5070114;28;8837;-73
2022/05/21 07:18:56;;;;;;;;;0.00;0.00;;;;;22.14;54.08;102102.41;5071070;28;8812;-73
2022/05/21 07:21:22;;;;;;;;;0.00;0.00;;;;;22.14;53.92;102098.84;5071217;28;9514;-73
2022/05/21 07:23:48;;;;;;;;;1.00;1.00;;;;;22.15;54.30;102104.19;5068675;28;8782;-73
2022/05/21 07:26:15;;;;;;;;;0.00;0.00;;;;;22.20;54.11;102105.88;5070949;28;8912;-71
2022/05/21 07:28:40;;;;;;;;;2.00;0.00;;;;;22.17;53.92;102123.66;5070845;28;9437;-73
2022/05/21 07:31:05;;;;;;;;;0.67;0.67;;;;;22.17;54.37;102118.34;5070113;28;9442;-74
2022/05/21 07:33:31;;;;;;;;;0.00;0.00;;;;;22.16;54.29;102127.19;5069057;28;8910;-74
2022/05/21 07:35:56;;;;;;;;;0.00;0.00;;;;;22.17;53.95;102128.97;5069766;28;8843;-74
2022/05/21 07:38:22;;;;;;;;;1.00;1.00;;;;;22.15;54.11;102125.47;5070710;28;8821;-74
2022/05/21 07:40:49;;;;;;;;;1.00;1.00;;;;;22.17;54.05;102130.75;5070527;28;8805;-74
2022/05/21 07:43:30;;;;;;;;;0.67;0.67;;;;;22.20;54.08;102143.13;5068153;28;8809;-74
2022/05/21 07:45:56;;;;;;;;;0.33;0.00;;;;;22.17;54.12;102152.91;5070521;28;9204;-74
2022/05/21 07:48:22;;;;;;;;;0.00;0.00;;;;;22.19;53.97;102152.91;5070253;28;9086;-73
2022/05/21 07:50:50;;;;;;;;;0.00;0.00;;;;;22.19;54.02;102158.25;5069987;28;9107;-73
2022/05/21 07:53:28;;;;;;;;;0.25;0.25;;;;;22.20;54.02;102162.66;5068947;28;8981;-74
2022/05/21 07:55:55;;;;;;;;;0.00;0.00;;;;;22.21;54.02;102160.88;5070537;28;10243;-75
2022/05/21 07:58:22;;;;;;;;;0.00;0.00;;;;;22.23;53.95;102156.44;5069616;28;9337;-73
2022/05/21 08:00:49;;;;;;;;;0.00;0.00;;;;;22.24;53.92;102167.06;5070374;28;9248;-73
2022/05/21 08:03:14;;;;;;;;;1.00;1.00;;;;;22.28;53.95;102170.59;5068552;28;9375;-73
2022/05/21 08:05:41;;;;;;;;;0.67;0.67;;;;;22.27;53.77;102164.38;5069539;28;9263;-71
2022/05/21 08:08:08;;;;;;;;;0.00;0.00;;;;;22.33;53.67;102166.13;5069380;28;8825;-73
2022/05/21 08:10:34;;;;;;;;;0.00;0.00;;;;;22.36;53.73;102163.44;5080925;28;9248;-72
2022/05/21 08:13:00;;;;;;;;;0.00;0.00;;;;;22.36;53.79;102171.44;5086190;28;10148;-72
2022/05/21 08:15:25;;;;;;;;;0.00;0.00;;;;;22.38;53.55;102173.19;5070051;28;9199;-73
2022/05/21 08:17:50;;;;;;;;;0.00;0.00;;;;;22.39;53.70;102163.44;5069461;28;8844;-73
2022/05/21 08:20:16;;;;;;;;;0.00;0.00;;;;;22.38;53.78;102175.84;5069337;28;8917;-73
2022/05/21 08:28:14;;;;;;;;;0.00;0.00;;;;;22.43;53.39;102173.16;5069730;28;9256;-73
2022/05/21 08:30:41;;;;;;;;;0.33;0.00;;;;;22.44;53.21;102174.94;5070182;28;9172;-73
2022/05/21 08:33:07;;;;;;;;;1.00;0.00;;;;;22.43;53.42;102168.72;5067287;28;10092;-73
2022/05/21 08:35:35;;;;;;;;;0.00;0.00;;;;;22.48;53.49;102174.91;5070084;28;9213;-72
2022/05/21 08:38:00;;;;;;;;;0.00;0.00;;;;;22.49;53.12;102175.81;5069292;28;9337;-72
2022/05/21 08:40:49;;;;;;;;;1.00;0.00;;;;;22.52;53.25;102168.69;5069105;28;9195;-73
2022/05/21 08:43:23;;;;;;;;;0.00;0.00;;;;;22.53;53.29;102178.41;5051231;28;8842;-73
2022/05/21 08:46:03;;;;;;;;;1.00;1.00;;;;;22.55;53.13;102181.97;5069552;28;10034;-73
2022/05/21 08:48:32;;;;;;;;;0.00;0.00;;;;;22.55;53.30;102183.75;5068954;28;9327;-73
2022/05/21 08:51:00;;;;;;;;;0.00;0.00;;;;;22.59;53.06;102185.50;5069597;28;9268;-74
2022/05/21 08:53:28;;;;;;;;;0.00;0.00;;;;;22.58;53.15;102173.97;5067323;28;9351;-73
2022/05/21 08:55:57;;;;;;;;;0.00;0.00;;;;;22.58;53.21;102176.63;5069571;28;9266;-72
2022/05/21 08:58:31;;;;;;;;;0.00;0.00;;;;;22.58;53.31;102171.28;5069171;28;9262;-73
2022/05/21 09:00:57;;;;;;;;;0.00;0.00;;;;;22.60;53.20;102180.16;5068396;28;9250;-72
2022/05/21 09:03:25;;;;;;;;;0.33;0.33;;;;;22.61;53.27;102186.34;5067693;28;9297;-73
2022/05/21 09:06:18;;;;;;;;;0.00;0.00;;;;;22.63;52.96;102190.78;5069640;28;8804;-73
2022/05/21 09:09:30;;;;;;;;;2.00;0.00;;;;;22.64;53.25;102181.88;5068699;28;9279;-73
2022/05/21 09:12:04;;;;;;;;;0.00;0.00;;;;;22.65;53.38;102182.78;5049194;28;9197;-73
2022/05/21 09:14:36;;;;;;;;;0.33;0.00;;;;;22.68;52.89;102177.50;5060360;28;9491;-73
2022/05/21 09:17:08;;;;;;;;;1.00;1.00;;;;;22.69;52.99;102179.22;5071880;28;9197;-73
2022/05/21 09:19:41;;;;;;;;;0.00;0.00;;;;;22.72;53.17;102189.00;5087599;28;9333;-69
2022/05/21 09:22:10;;;;;;;;;0.00;0.00;;;;;22.78;53.37;102172.97;5092574;28;9219;-70
2022/05/21 09:24:48;;;;;;;;;1.00;1.00;;;;;22.88;55.07;102182.66;5093580;28;10464;-70
2022/05/21 09:27:33;;;;;;;;;0.00;0.00;;;;;23.01;54.47;102181.66;5093537;28;9023;-70
2022/05/21 09:30:14;;;;;;;;;2.00;1.00;;;;;23.13;55.58;102192.22;5092590;28;9178;-70
2022/05/21 09:32:42;;;;;;;;;2.67;0.00;;;;;23.19;57.46;102186.81;5093604;28;9414;-69
2022/05/21 09:35:14;;;;;;;;;1.00;0.33;;;;;23.28;57.81;102188.53;5093045;28;9273;-71
2022/05/21 09:37:41;;;;;;;;;3.67;3.00;;;;;23.34;59.68;102184.03;5092635;28;9188;-70
2022/05/21 09:40:34;;;;;;;;;1.00;1.00;;;;;23.32;59.92;102190.28;5092888;28;9239;-71
2022/05/21 09:45:46;;;;;;;;;2.50;2.50;;;;;23.10;60.79;102189.56;5092832;28;9320;-72
2022/05/21 09:48:11;;;;;;;;;1.00;1.00;;;;;23.08;61.49;102188.72;5090785;28;10088;-72
2022/05/21 09:50:54;;;;;;;;;4.50;2.75;;;;;23.07;60.53;102192.25;5072581;28;8801;-71
2022/05/21 09:53:34;;;;;;;;;1.67;1.00;;;;;23.09;57.29;102188.66;5072222;28;8778;-72
2022/05/21 09:56:02;;;;;;;;;1.67;0.67;;;;;23.10;57.48;102194.88;5072720;28;9451;-73
2022/05/21 09:58:32;;;;;;;;;2.00;2.00;;;;;23.01;58.82;102198.53;5071823;28;9278;-72
2022/05/21 10:01:00;;;;;;;;;1.00;1.00;;;;;22.93;58.36;102210.13;5071961;28;9328;-73
2022/05/21 10:03:49;;;;;;;;;4.67;2.33;;;;;22.89;58.01;102200.41;5072591;28;9575;-72
2022/05/21 10:06:40;;;;;;;;;3.00;3.00;;;;;22.84;57.67;102210.19;5072739;28;9252;-74
2022/05/21 10:12:15;;;;;;;;;1.00;1.00;;;;;22.75;56.62;102215.59;5051565;28;9254;-74
2022/05/21 10:15:05;;;;;;;;;1.33;1.33;;;;;22.72;55.90;102218.28;5080090;28;9332;-74
2022/05/21 10:17:34;;;;;;;;;1.00;1.00;;;;;22.65;55.60;102217.38;5092711;28;9276;-74
2022/05/21 10:20:34;;;;;;;;;1.50;1.50;;;;;22.64;55.77;102224.47;5092424;28;9322;-74
2022/05/21 10:23:15;;;;;;;;;5.00;0.00;;;;;22.67;55.54;102226.28;5092492;28;9385;-74
2022/05/21 10:25:59;;;;;;;;;2.00;2.00;;;;;22.71;55.29;102232.50;5091979;28;9212;-74
2022/05/21 10:28:33;;;;;;;;;1.00;1.00;;;;;22.71;54.93;102230.72;5091193;28;9429;-74
2022/05/21 10:31:33;;;;;;;;;2.00;0.67;;;;;22.70;54.70;102220.94;5092295;28;9399;-73
2022/05/21 10:34:03;;;;;;;;;0.00;0.00;;;;;22.66;54.25;102208.50;5091427;28;9277;-72
2022/05/21 10:36:37;;;;;;;;;2.00;1.00;;;;;22.63;54.73;102221.84;5092509;28;9265;-73
2022/05/21 10:39:34;;;;;;;;;1.75;1.00;;;;;22.69;54.07;102232.47;5091554;28;9321;-73
2022/05/21 10:42:11;;;;;;;;;1.00;1.00;;;;;22.77;53.91;102225.34;5058812;28;9529;-73
2022/05/21 10:45:07;;;;;;;;;0.67;0.67;;;;;22.78;52.73;102231.56;5092407;28;9294;-72
2022/05/21 10:47:48;;;;;;;;;1.00;1.00;;;;;22.85;51.28;102239.50;5091864;28;9259;-72
2022/05/21 10:50:28;;;;;;;;;1.00;1.00;;;;;22.88;50.38;102225.25;5091791;28;10272;-72
2022/05/21 10:53:22;;;;;;;;;1.00;1.00;;;;;22.92;50.33;102230.56;5091972;28;9313;-72
2022/05/21 10:56:16;;;;;;;;;1.00;1.00;;;;;22.91;50.86;102238.53;5052124;28;9211;-72
2022/05/21 10:59:05;;;;;;;;;1.00;0.75;;;;;22.71;50.47;102233.38;5052248;28;9471;-73
2022/05/21 11:01:52;;;;;;;;;0.33;0.33;;;;;22.78;50.06;102226.22;5061996;28;9449;-72
2022/05/21 11:04:20;;;;;;;;;0.50;0.00;;;;;22.81;49.32;102224.44;5063060;28;9365;-72
2022/05/21 11:07:11;;;;;;;;;0.00;0.00;;;;;22.88;48.76;102231.47;5071261;28;9367;-72
2022/05/21 11:10:01;;;;;;;;;1.75;0.75;;;;;22.89;49.54;102235.91;5074054;28;9356;-72
2022/05/21 11:12:34;;;;;;;;;2.00;1.00;;;;;22.82;49.22;102238.63;5073153;28;9405;-73
2022/05/21 11:15:11;;;;;;;;;1.25;0.25;;;;;22.80;49.93;102235.06;5069299;28;9322;-72
2022/05/21 11:17:46;;;;;;;;;2.50;1.50;;;;;22.79;49.73;102236.88;5071417;28;9425;-73
2022/05/21 11:20:30;;;;;;;;;1.00;1.00;;;;;22.77;49.71;102230.66;5070262;28;9413;-72
2022/05/21 11:23:06;;;;;;;;;0.33;0.00;;;;;22.69;49.65;102228.94;5067831;28;9276;-73
2022/05/21 11:25:45;;;;;;;;;1.50;1.50;;;;;22.71;49.44;102216.50;5068604;28;9290;-73
2022/05/21 11:28:31;;;;;;;;;0.00;0.00;;;;;22.73;49.48;102222.69;5070254;28;9417;-72
2022/05/21 11:31:05;;;;;;;;;1.50;1.00;;;;;22.77;49.34;102228.00;5069711;28;9196;-72
2022/05/21 11:39:14;;;;;;;;;1.00;1.00;;;;;22.86;49.38;102224.41;5070289;28;9398;-72
2022/05/21 11:42:10;;;;;;;;;0.00;0.00;;;;;22.88;49.52;102219.94;5069558;28;10017;-73
2022/05/21 11:47:22;;;;;;;;;0.67;0.67;;;;;22.84;49.57;102224.41;5069289;28;9161;-73
2022/05/21 11:49:51;;;;;;;;;0.00;0.00;;;;;22.91;49.06;102227.91;5069891;28;10044;-73
2022/05/21 11:52:31;;;;;;;;;1.33;0.67;;;;;22.94;49.21;102227.91;5069163;28;8794;-73
2022/05/21 11:54:56;;;;;;;;;0.00;0.00;;;;;22.95;49.52;102224.31;5070307;28;10036;-73
2022/05/21 11:57:36;;;;;;;;;1.67;1.00;;;;;22.87;48.87;102232.34;5068969;28;9533;-74
2022/05/21 12:00:05;;;;;;;;;1.00;1.00;;;;;22.77;49.47;102236.00;5070277;28;8797;-74
2022/05/21 12:02:32;;;;;;;;;2.00;0.25;;;;;22.81;50.10;102237.75;5070876;28;9473;-73
2022/05/21 12:05:08;;;;;;;;;1.00;0.00;;;;;22.87;49.96;102227.03;5069836;28;9331;-73
2022/05/21 12:07:49;;;;;;;;;2.00;0.00;;;;;22.88;49.79;102239.47;5070003;28;9279;-73
2022/05/21 12:10:30;;;;;;;;;0.67;0.67;;;;;22.87;49.09;102234.16;5077732;28;9398;-73
2022/05/21 12:13:12;;;;;;;;;1.00;0.33;;;;;22.86;49.36;102229.72;5090562;28;10042;-73
2022/05/21 12:15:43;;;;;;;;;2.75;1.00;;;;;22.86;48.63;102233.28;5050438;28;10111;-73
2022/05/21 12:18:25;;;;;;;;;1.33;0.00;;;;;22.83;48.88;102235.09;5050102;28;9370;-73
2022/05/21 12:20:51;;;;;;;;;1.00;1.00;;;;;22.81;48.32;102239.50;5050343;28;9265;-73